Time;durP1;ratioP1;P1;durP2;ratioP2;P2;SDS_P1;SDS_P2;PMS_P1;PMS_P2;Temp;Humidity;BMP_temperature;BMP_pressure;BME280_temperature;BME280_humidity;BME280_pressure;Samples;Min_cycle;Max_cycle;Signal;HPM_P1;HPM_P2
2022/09/23 00:00:10;;;;;;;3.05;1.10;;;;;;;17.84;57.93;101072.38;2093843;28;20044;-73
2022/09/23 00:01:32;;;;;;;4.22;1.10;;;;;;;17.82;57.99;101061.72;2080247;28;20071;-73
2022/09/23 00:02:54;;;;;;;3.80;1.25;;;;;;;17.80;58.13;101065.28;2100203;28;20044;-74
2022/09/23 00:04:17;;;;;;;6.70;1.55;;;;;;;17.78;58.21;101065.31;2090816;28;20041;-74
2022/09/23 00:05:40;;;;;;;3.97;1.15;;;;;;;17.76;58.28;101063.53;2094230;28;20474;-73
2022/09/23 00:07:04;;;;;;;2.08;1.08;;;;;;;17.74;58.37;101055.53;2096538;28;20052;-74
2022/09/23 00:08:26;;;;;;;5.45;1.10;;;;;;;17.71;58.63;101057.38;2096797;28;20064;-74
2022/09/23 00:09:50;;;;;;;4.50;1.25;;;;;;;17.70;58.64;101060.94;2099328;28;20587;-74
2022/09/23 00:11:13;;;;;;;2.40;1.25;;;;;;;17.70;58.67;101056.47;2096680;28;20521;-74
2022/09/23 00:12:36;;;;;;;5.43;1.40;;;;;;;17.70;58.73;101055.59;2088328;28;20055;-74
2022/09/23 00:14:00;;;;;;;4.57;1.42;;;;;;;17.70;58.85;101069.84;2093883;28;20059;-74
2022/09/23 00:15:24;;;;;;;5.28;1.42;;;;;;;17.69;58.80;101060.03;2096683;28;20045;-74
2022/09/23 00:16:46;;;;;;;3.63;1.30;;;;;;;17.69;58.82;101054.72;2096760;28;20143;-74
2022/09/23 00:18:08;;;;;;;2.70;1.60;;;;;;;17.68;58.72;101046.69;2088215;28;20144;-73
2022/09/23 00:19:31;;;;;;;2.80;1.23;;;;;;;17.62;58.93;101047.66;2093407;28;20498;-73
2022/09/23 00:20:52;;;;;;;2.97;1.20;;;;;;;17.60;58.93;101054.75;2096515;28;20056;-73
2022/09/23 00:22:17;;;;;;;2.65;1.30;;;;;;;17.59;59.07;101049.44;2096599;28;20044;-74
2022/09/23 00:23:39;;;;;;;3.30;1.30;;;;;;;17.57;59.17;101051.22;2088246;28;20052;-74
2022/09/23 00:25:02;;;;;;;2.25;1.20;;;;;;;17.53;59.33;101040.56;2096418;28;20422;-73
2022/09/23 00:26:23;;;;;;;3.33;1.42;;;;;;;17.56;59.41;101046.78;2096381;28;20049;-74
2022/09/23 00:27:46;;;;;;;2.15;1.15;;;;;;;17.54;59.53;101039.66;2096314;28;20074;-74
2022/09/23 00:29:07;;;;;;;3.42;1.30;;;;;;;17.54;59.37;101046.78;2096361;28;20439;-73
2022/09/23 00:30:31;;;;;;;6.72;1.40;;;;;;;17.54;59.37;101044.09;2096537;28;20127;-74
2022/09/23 00:31:53;;;;;;;3.33;1.17;;;;;;;17.54;59.40;101047.66;2105022;28;20384;-74
2022/09/23 00:33:15;;;;;;;4.00;1.17;;;;;;;17.53;59.43;101053.91;2090795;28;20048;-74
2022/09/23 00:34:38;;;;;;;4.30;1.33;;;;;;;17.52;59.39;101046.78;2093942;28;20052;-74
2022/09/23 00:36:00;;;;;;;3.45;1.10;;;;;;;17.56;59.43;101049.44;2096441;28;20143;-73
2022/09/23 00:37:25;;;;;;;3.50;1.20;;;;;;;17.57;59.39;101052.13;2096561;28;20131;-73
2022/09/23 00:38:47;;;;;;;3.38;1.40;;;;;;;17.57;59.33;101053.91;2095653;28;20079;-73
2022/09/23 00:40:11;;;;;;;3.83;1.15;;;;;;;17.57;59.25;101052.13;2088089;28;20095;-74
2022/09/23 00:41:35;;;;;;;3.38;1.25;;;;;;;17.58;59.18;101045.00;2094470;28;20050;-73
2022/09/23 00:42:56;;;;;;;3.90;1.30;;;;;;;17.60;59.22;101048.50;2096270;28;20047;-73
2022/09/23 00:44:55;;;;;;;4.22;1.30;;;;;;;17.58;59.13;101043.22;2096215;28;20079;-74
2022/09/23 00:46:19;;;;;;;2.97;1.17;;;;;;;17.56;59.15;101053.00;2098730;28;20049;-74
2022/09/23 00:47:47;;;;;;;3.63;1.40;;;;;;;17.56;59.18;101044.09;2096630;28;20139;-74
2022/09/23 00:49:12;;;;;;;4.30;1.27;;;;;;;17.54;59.44;101047.66;2088528;28;20052;-74
2022/09/23 00:50:39;;;;;;;5.20;1.30;;;;;;;17.54;59.29;101037.00;2086243;28;20489;-74
2022/09/23 00:52:07;;;;;;;3.63;1.20;;;;;;;17.52;59.29;101044.13;2094786;28;20522;-74
2022/09/23 00:53:31;;;;;;;4.50;1.30;;;;;;;17.50;59.46;101037.94;2097113;28;20044;-74
2022/09/23 00:54:55;;;;;;;3.35;1.08;;;;;;;17.48;59.52;101037.03;2088063;28;20049;-74
2022/09/23 00:56:21;;;;;;;4.22;1.30;;;;;;;17.47;59.69;101037.94;2085825;28;20048;-74
2022/09/23 00:57:46;;;;;;;5.75;1.30;;;;;;;17.48;59.67;101039.72;2094799;28;20036;-74
2022/09/23 00:59:09;;;;;;;3.58;1.50;;;;;;;17.49;59.74;101037.94;2096436;28;20084;-74
2022/09/23 01:00:32;;;;;;;3.88;1.60;;;;;;;17.49;59.68;101041.50;2096179;28;20036;-74
2022/09/23 01:01:56;;;;;;;1.67;1.10;;;;;;;17.52;59.71;101038.78;2096189;28;20071;-74
2022/09/23 01:03:21;;;;;;;5.78;1.20;;;;;;;17.52;59.66;101044.13;2088125;28;20053;-73
2022/09/23 01:04:44;;;;;;;4.75;1.35;;;;;;;17.52;59.71;101033.44;2088240;28;20099;-73
2022/09/23 01:06:08;;;;;;;5.78;1.50;;;;;;;17.55;59.69;101051.22;2093684;28;20100;-74
2022/09/23 01:07:31;;;;;;;2.70;1.00;;;;;;;17.55;59.62;101043.22;2096504;28;20131;-74
2022/09/23 01:08:56;;;;;;;3.72;1.75;;;;;;;17.58;59.77;101043.22;2087801;28;20041;-74
2022/09/23 01:10:20;;;;;;;3.63;1.17;;;;;;;17.57;59.71;101036.09;2093993;28;20056;-74
2022/09/23 01:11:52;;;;;;;3.60;1.10;;;;;;;17.60;59.68;101041.38;2096322;28;20036;-73
2022/09/23 01:13:23;;;;;;;5.20;1.27;;;;;;;17.62;59.62;101039.63;2097230;28;20036;-74
2022/09/23 01:14:54;;;;;;;4.55;1.23;;;;;;;17.65;59.61;101036.94;2097370;28;20066;-74
2022/09/23 01:16:22;;;;;;;3.17;1.23;;;;;;;17.68;59.30;101033.34;2097242;28;20055;-74
2022/09/23 01:17:55;;;;;;;4.10;1.15;;;;;;;17.70;59.33;101031.56;2105263;28;20388;-74
2022/09/23 01:19:36;;;;;;;3.55;1.17;;;;;;;17.71;59.22;101034.22;2098385;28;20144;-74
2022/09/23 01:21:07;;;;;;;5.78;1.33;;;;;;;17.70;59.24;101031.56;2098359;28;20052;-74
2022/09/23 01:22:37;;;;;;;3.90;1.25;;;;;;;17.70;59.09;101035.13;2105588;28;20076;-74
2022/09/23 01:24:44;;;;;;;3.13;1.20;;;;;;;17.69;59.17;101029.78;2090119;28;20097;-74
2022/09/23 01:26:24;;;;;;;4.35;1.40;;;;;;;17.63;59.34;101021.84;2066955;28;20082;-73
2022/09/23 01:28:04;;;;;;;3.42;1.17;;;;;;;17.60;59.49;101014.69;2106544;28;20063;-74
2022/09/23 01:30:01;;;;;;;5.35;1.70;;;;;;;17.57;59.50;101006.72;2098375;28;20545;-73
2022/09/23 01:31:34;;;;;;;3.42;1.30;;;;;;;17.54;59.64;101007.63;2098596;28;20040;-73
2022/09/23 01:33:07;;;;;;;5.47;1.38;;;;;;;17.54;59.74;101020.97;2088837;28;20087;-74
2022/09/23 01:34:37;;;;;;;5.53;1.40;;;;;;;17.56;59.75;101020.06;2097250;28;20074;-74
2022/09/23 01:36:17;;;;;;;3.33;1.75;;;;;;;17.57;59.73;101025.41;2088419;28;20148;-74
2022/09/23 01:37:46;;;;;;;6.45;2.30;;;;;;;17.57;59.75;101028.09;2098191;28;20048;-74
2022/09/23 01:39:16;;;;;;;3.47;1.10;;;;;;;17.60;59.58;101029.81;2096734;28;20056;-74
2022/09/23 01:40:47;;;;;;;5.40;1.17;;;;;;;17.61;59.57;101023.63;2090233;28;20074;-74
2022/09/23 01:42:16;;;;;;;4.75;1.92;;;;;;;17.63;59.48;101016.50;2097069;28;20143;-74
2022/09/23 01:43:47;;;;;;;3.40;1.35;;;;;;;17.62;59.43;101012.94;2090066;28;20037;-74
2022/09/23 01:45:16;;;;;;;6.18;1.45;;;;;;;17.64;59.59;101015.59;2087321;28;20041;-74
2022/09/23 01:46:49;;;;;;;2.58;1.30;;;;;;;17.61;59.48;101007.59;2103526;28;20553;-74
2022/09/23 01:48:17;;;;;;;5.38;1.20;;;;;;;17.60;59.63;101004.00;2098553;28;20048;-74
2022/09/23 01:49:49;;;;;;;3.90;1.38;;;;;;;17.59;59.65;100998.72;2104691;28;20040;-74
2022/09/23 01:51:15;;;;;;;5.93;1.30;;;;;;;17.56;59.63;100999.63;2081890;28;20045;-73
2022/09/23 01:52:46;;;;;;;5.30;1.23;;;;;;;17.57;59.56;101011.19;2083813;28;20037;-74
2022/09/23 01:54:14;;;;;;;4.10;1.27;;;;;;;17.53;59.76;101011.19;2095331;28;20062;-74
2022/09/23 01:55:41;;;;;;;4.13;1.50;;;;;;;17.53;59.64;101016.53;2105073;28;20471;-74
2022/09/23 01:57:08;;;;;;;3.58;1.23;;;;;;;17.53;59.76;101018.31;2089991;28;20048;-73
2022/09/23 01:58:37;;;;;;;4.45;1.67;;;;;;;17.51;59.68;101023.69;2096288;28;20469;-74
2022/09/23 02:00:05;;;;;;;3.45;1.35;;;;;;;17.51;59.60;101014.78;2096693;28;20032;-73
2022/09/23 02:01:38;;;;;;;2.67;1.23;;;;;;;17.48;59.82;101014.81;2097383;28;20072;-74
2022/09/23 02:03:09;;;;;;;5.38;1.23;;;;;;;17.47;59.66;101013.03;2096300;28;20059;-74
2022/09/23 02:04:38;;;;;;;2.53;1.52;;;;;;;17.44;59.94;101008.63;2096713;28;20490;-73
2022/09/23 02:06:04;;;;;;;3.35;1.40;;;;;;;17.44;59.85;101013.97;2096526;28;20048;-73
2022/09/23 02:07:33;;;;;;;4.80;1.25;;;;;;;17.43;59.97;101016.63;2096122;28;20118;-74
2022/09/23 02:08:59;;;;;;;3.70;1.50;;;;;;;17.41;59.94;101016.63;2088291;28;20139;-74
2022/09/23 02:10:26;;;;;;;4.88;1.63;;;;;;;17.39;60.02;101021.09;2102311;28;20051;-73
2022/09/23 02:11:51;;;;;;;4.45;1.23;;;;;;;17.39;60.03;101021.09;2098237;28;20139;-73
2022/09/23 02:13:16;;;;;;;3.75;1.55;;;;;;;17.37;60.17;101014.91;2087673;28;20044;-74
2022/09/23 02:14:46;;;;;;;3.40;1.30;;;;;;;17.36;60.29;101012.25;2093822;28;20123;-73
2022/09/23 02:16:15;;;;;;;4.63;1.30;;;;;;;17.33;60.25;101001.56;2088084;28;20049;-73
2022/09/23 02:17:44;;;;;;;7.63;1.60;;;;;;;17.32;60.38;101003.38;2094902;28;20075;-74
2022/09/23 02:19:10;;;;;;;4.00;1.23;;;;;;;17.34;60.50;101008.69;2097759;28;20435;-74
2022/09/23 02:20:38;;;;;;;4.20;1.33;;;;;;;17.35;60.50;101007.78;2096312;28;20106;-74
2022/09/23 02:22:05;;;;;;;3.63;1.23;;;;;;;17.37;60.53;100998.91;2089964;28;20504;-74
2022/09/23 02:23:33;;;;;;;7.32;1.40;;;;;;;17.39;60.36;101009.56;2094432;28;20135;-74
2022/09/23 02:24:58;;;;;;;5.28;1.35;;;;;;;17.39;60.40;101001.56;2088099;28;20052;-74
2022/09/23 02:26:26;;;;;;;5.55;1.60;;;;;;;17.39;60.40;101006.91;2093702;28;20044;-74
2022/09/23 02:27:56;;;;;;;4.18;1.40;;;;;;;17.39;60.35;100998.88;2096312;28;20036;-74
2022/09/23 02:29:20;;;;;;;5.82;1.83;;;;;;;17.37;60.46;100993.56;2088082;28;20141;-74
2022/09/23 02:30:49;;;;;;;3.10;1.60;;;;;;;17.37;60.53;100985.53;2085213;28;20095;-74
2022/09/23 02:32:18;;;;;;;2.08;1.13;;;;;;;17.37;60.41;100992.66;2094770;28;20044;-74
2022/09/23 02:33:46;;;;;;;3.92;1.27;;;;;;;17.35;60.55;100992.66;2104300;28;20048;-74
2022/09/23 02:35:27;;;;;;;2.63;1.40;;;;;;;17.37;60.51;100992.66;2098163;28;20051;-74
2022/09/23 02:37:07;;;;;;;3.60;1.05;;;;;;;17.38;60.59;100991.78;2089662;28;20041;-73
2022/09/23 02:38:35;;;;;;;4.72;1.17;;;;;;;17.39;60.60;100989.06;2089586;28;20139;-73
2022/09/23 02:40:04;;;;;;;4.43;1.60;;;;;;;17.39;60.71;100989.06;2102926;28;20060;-74
2022/09/23 02:41:31;;;;;;;5.15;1.15;;;;;;;17.41;60.77;100986.38;2098018;28;20140;-74
2022/09/23 02:43:05;;;;;;;3.75;1.60;;;;;;;17.41;60.55;100983.72;2096187;28;20041;-74
2022/09/23 02:44:27;;;;;;;3.92;1.40;;;;;;;17.40;60.48;100985.50;2096880;28;20052;-73
2022/09/23 02:45:51;;;;;;;3.30;1.33;;;;;;;17.42;60.46;100972.16;2095406;28;20476;-74
2022/09/23 02:47:12;;;;;;;3.13;1.25;;;;;;;17.39;60.61;100973.06;2095645;28;20052;-74
2022/09/23 02:48:40;;;;;;;4.10;1.27;;;;;;;17.39;60.65;100967.72;2097983;28;20127;-74
2022/09/23 02:50:01;;;;;;;3.88;1.20;;;;;;;17.37;60.61;100964.19;2096115;28;20122;-73
2022/09/23 02:51:27;;;;;;;2.58;1.20;;;;;;;17.38;60.72;100973.09;2095319;28;20130;-74
2022/09/23 02:52:50;;;;;;;2.58;1.38;;;;;;;17.35;60.80;100975.78;2098076;28;20432;-74
2022/09/23 02:54:14;;;;;;;5.30;1.15;;;;;;;17.34;60.82;100974.88;2095178;28;20049;-74
2022/09/23 02:55:37;;;;;;;6.30;1.58;;;;;;;17.35;60.97;100978.44;2098109;28;20056;-74
2022/09/23 02:57:01;;;;;;;5.07;1.40;;;;;;;17.34;60.94;100976.66;2086964;28;20099;-73
2022/09/23 02:58:23;;;;;;;5.60;1.60;;;;;;;17.32;60.95;100979.38;2093276;28;20052;-73
2022/09/23 02:59:46;;;;;;;4.95;1.95;;;;;;;17.32;60.99;100976.72;2087092;28;20037;-74
2022/09/23 03:01:20;;;;;;;3.17;1.40;;;;;;;17.34;61.00;100974.88;2093064;28;20060;-73
2022/09/23 03:03:09;;;;;;;4.55;1.40;;;;;;;17.34;61.00;100990.00;2098699;28;20036;-73
2022/09/23 03:04:41;;;;;;;2.67;1.40;;;;;;;17.34;61.05;100990.00;2099498;28;20384;-73
2022/09/23 03:06:10;;;;;;;4.60;1.63;;;;;;;17.33;61.15;100985.56;2098179;28;20047;-74
2022/09/23 03:07:44;;;;;;;2.67;1.20;;;;;;;17.33;61.10;100989.13;2097866;28;20072;-74
2022/09/23 03:09:12;;;;;;;4.05;1.08;;;;;;;17.35;61.24;100997.13;2098420;28;20485;-73
2022/09/23 03:10:43;;;;;;;3.20;1.20;;;;;;;17.36;61.15;100991.78;2089663;28;20382;-74
2022/09/23 03:12:14;;;;;;;3.97;1.40;;;;;;;17.39;61.24;100994.41;2096691;28;20045;-74
2022/09/23 03:13:51;;;;;;;1.70;1.20;;;;;;;17.39;61.15;100997.06;2097983;28;20068;-74
2022/09/23 03:15:23;;;;;;;4.97;1.50;;;;;;;17.41;61.03;100991.72;2107575;28;20067;-74
2022/09/23 03:16:53;;;;;;;2.03;1.10;;;;;;;17.42;61.02;101002.41;2099686;28;20535;-73
2022/09/23 03:18:22;;;;;;;6.47;1.55;;;;;;;17.43;61.07;100993.50;2097925;28;20090;-74
2022/09/23 03:19:50;;;;;;;5.20;1.45;;;;;;;17.44;61.03;100997.94;2097549;28;20048;-74
2022/09/23 03:21:19;;;;;;;3.20;1.23;;;;;;;17.47;61.09;100997.00;2106210;28;20490;-74
2022/09/23 03:22:47;;;;;;;1.92;1.27;;;;;;;17.52;61.07;101003.22;2099500;28;20130;-73
2022/09/23 03:24:13;;;;;;;3.53;1.38;;;;;;;17.57;60.95;101001.38;2097547;28;20045;-74
2022/09/23 03:25:39;;;;;;;6.97;1.35;;;;;;;17.63;60.76;101003.16;2097707;28;20051;-74
2022/09/23 03:27:04;;;;;;;3.10;1.00;;;;;;;17.68;60.58;100998.63;2091179;28;20045;-74
2022/09/23 03:28:27;;;;;;;2.67;1.30;;;;;;;17.71;60.58;100995.94;2097511;28;20052;-74
2022/09/23 03:29:53;;;;;;;3.78;1.40;;;;;;;17.75;60.45;100992.34;2105451;28;20078;-74
2022/09/23 03:31:16;;;;;;;5.15;1.60;;;;;;;17.76;60.35;100994.13;2091187;28;20059;-73
2022/09/23 03:32:39;;;;;;;4.18;1.10;;;;;;;17.75;60.29;100993.22;2103351;28;20063;-74
2022/09/23 03:34:06;;;;;;;4.82;1.35;;;;;;;17.76;60.48;101000.34;2090896;28;20049;-73
2022/09/23 03:35:30;;;;;;;6.28;1.45;;;;;;;17.77;60.42;100995.88;2095585;28;20131;-73
2022/09/23 03:37:01;;;;;;;4.18;1.10;;;;;;;17.78;60.46;100998.56;2088909;28;20052;-74
2022/09/23 03:38:30;;;;;;;4.55;2.08;;;;;;;17.81;60.21;101006.50;2105389;28;20055;-73
2022/09/23 03:39:57;;;;;;;2.85;1.23;;;;;;;17.84;60.18;101005.59;2099320;28;20163;-73
2022/09/23 03:41:27;;;;;;;2.92;1.17;;;;;;;17.85;60.13;101004.72;2097493;28;20049;-74
2022/09/23 03:42:50;;;;;;;5.10;1.35;;;;;;;17.84;60.11;100997.59;2097808;28;20052;-74
2022/09/23 03:44:12;;;;;;;2.78;1.02;;;;;;;17.85;60.08;101005.56;2088409;28;20059;-74
2022/09/23 03:45:35;;;;;;;3.20;1.33;;;;;;;17.85;60.14;101013.59;2093951;28;20454;-74
2022/09/23 03:47:01;;;;;;;2.17;1.10;;;;;;;17.88;59.91;101008.22;2096692;28;20462;-74
2022/09/23 03:48:23;;;;;;;3.22;1.15;;;;;;;17.91;59.72;101010.88;2097205;28;20051;-74
2022/09/23 03:49:47;;;;;;;3.05;1.30;;;;;;;17.96;59.40;101005.47;2096825;28;20036;-73
2022/09/23 03:51:21;;;;;;;3.10;1.00;;;;;;;17.99;59.50;101007.22;2097070;28;20109;-74
2022/09/23 03:52:43;;;;;;;6.25;1.35;;;;;;;18.01;59.41;101011.66;2091093;28;20048;-73
2022/09/23 03:54:07;;;;;;;4.38;1.10;;;;;;;18.04;59.35;101021.44;2094044;28;20044;-74
2022/09/23 03:55:31;;;;;;;4.03;1.48;;;;;;;18.06;59.20;101024.94;2096815;28;20056;-74
2022/09/23 03:56:56;;;;;;;4.75;1.30;;;;;;;18.05;59.30;101029.41;2099402;28;20400;-74
2022/09/23 03:58:19;;;;;;;3.90;1.50;;;;;;;18.05;59.31;101024.06;2099205;28;20044;-74
2022/09/23 03:59:42;;;;;;;4.18;1.30;;;;;;;18.06;59.57;101028.50;2099350;28;20148;-74
2022/09/23 04:01:03;;;;;;;2.38;1.55;;;;;;;18.04;59.62;101025.00;2105166;28;20048;-74
2022/09/23 04:02:26;;;;;;;5.50;1.60;;;;;;;18.07;59.74;101029.38;2090940;28;20052;-74
2022/09/23 04:03:47;;;;;;;4.57;1.30;;;;;;;18.06;59.91;101025.84;2093873;28;20036;-74
2022/09/23 04:05:10;;;;;;;;;;;;;;;18.02;59.92;101024.09;2088823;28;20045;-74
2022/09/23 04:06:33;;;;;;;6.57;1.50;;;;;;;18.04;60.11;101021.44;2086071;28;19925;-74
2022/09/23 04:07:55;;;;;;;2.72;1.10;;;;;;;18.06;60.18;101027.63;2102352;28;20085;-74
2022/09/23 04:09:19;;;;;;;4.55;1.35;;;;;;;18.10;60.32;101030.25;2099101;28;20101;-74
2022/09/23 04:10:42;;;;;;;6.82;2.30;;;;;;;18.15;60.17;101031.09;2096620;28;20048;-74
2022/09/23 04:12:05;;;;;;;3.92;1.60;;;;;;;18.17;60.08;101029.28;2104827;28;20044;-74
2022/09/23 04:13:27;;;;;;;4.40;1.65;;;;;;;18.20;60.10;101039.03;2098942;28;20504;-74
2022/09/23 04:14:49;;;;;;;5.00;1.60;;;;;;;18.20;60.20;101039.94;2096607;28;20123;-74
2022/09/23 04:16:11;;;;;;;6.80;1.95;;;;;;;18.23;60.09;101044.38;2096463;28;20048;-74
2022/09/23 04:17:33;;;;;;;7.45;1.58;;;;;;;18.25;60.22;101047.88;2096391;28;20079;-74
2022/09/23 04:18:56;;;;;;;5.38;1.88;;;;;;;18.27;60.03;101051.44;2088219;28;20052;-74
2022/09/23 04:20:17;;;;;;;6.07;1.50;;;;;;;18.30;59.98;101052.31;2094070;28;20093;-74
2022/09/23 04:21:41;;;;;;;5.50;1.55;;;;;;;18.39;59.79;101053.97;2096320;28;20041;-74
2022/09/23 04:23:04;;;;;;;3.05;1.50;;;;;;;18.45;59.74;101037.84;2096718;28;20063;-74
2022/09/23 04:24:28;;;;;;;4.60;1.67;;;;;;;18.52;59.56;101036.00;2096582;28;20143;-74
2022/09/23 04:25:51;;;;;;;6.43;1.30;;;;;;;18.57;59.40;101043.09;2096713;28;20048;-74
2022/09/23 04:27:13;;;;;;;5.15;1.45;;;;;;;18.62;59.27;101041.25;2096407;28;20050;-75
2022/09/23 04:28:35;;;;;;;8.43;1.85;;;;;;;18.68;58.93;101046.53;2090748;28;20506;-74
2022/09/23 04:29:57;;;;;;;1.83;1.00;;;;;;;18.78;58.96;101047.25;2088090;28;20497;-75
2022/09/23 04:31:21;;;;;;;5.80;1.73;;;;;;;18.88;58.81;101050.72;2077374;28;20045;-75
2022/09/23 04:32:43;;;;;;;3.28;1.10;;;;;;;18.94;58.65;101046.16;2099911;28;20040;-75
2022/09/23 04:34:04;;;;;;;7.60;1.10;;;;;;;19.00;58.50;101048.75;2090533;28;20447;-74
2022/09/23 04:35:27;;;;;;;2.17;1.10;;;;;;;19.04;58.42;101052.25;2101841;28;20044;-75
2022/09/23 04:36:50;;;;;;;5.45;1.50;;;;;;;19.10;58.34;101044.13;2099150;28;20045;-75
2022/09/23 04:38:11;;;;;;;2.70;1.20;;;;;;;19.20;58.48;101055.59;2104774;28;20083;-75
2022/09/23 04:39:35;;;;;;;8.93;1.45;;;;;;;19.27;58.08;101060.84;2099039;28;20066;-74
2022/09/23 04:40:58;;;;;;;1.98;1.02;;;;;;;19.33;58.08;101055.38;2088225;28;20045;-74
2022/09/23 04:42:19;;;;;;;3.10;1.30;;;;;;;19.37;57.92;101059.78;2093757;28;20435;-74
2022/09/23 04:43:42;;;;;;;3.20;1.30;;;;;;;19.43;57.80;101064.16;2096278;28;20058;-74
2022/09/23 04:45:05;;;;;;;2.38;0.98;;;;;;;19.48;57.56;101060.53;2088112;28;20049;-74
2022/09/23 04:46:28;;;;;;;3.55;1.00;;;;;;;19.52;57.31;101061.38;2102145;28;20135;-74
2022/09/23 04:47:51;;;;;;;2.08;0.90;;;;;;;19.56;57.27;101048.81;2090441;28;20116;-74
2022/09/23 04:49:15;;;;;;;4.53;1.27;;;;;;;19.59;57.40;101046.97;2102037;28;20055;-75
2022/09/23 04:50:36;;;;;;;3.40;1.30;;;;;;;19.62;57.26;101043.38;2090582;28;20044;-74
2022/09/23 04:51:59;;;;;;;2.55;1.20;;;;;;;19.64;57.28;101044.19;2101896;28;20048;-74
2022/09/23 04:53:21;;;;;;;1.80;1.17;;;;;;;19.66;57.05;101043.28;2098699;28;20465;-75
2022/09/23 04:54:45;;;;;;;3.20;1.20;;;;;;;19.67;57.07;101044.16;2098718;28;20044;-74
2022/09/23 04:56:10;;;;;;;2.65;1.00;;;;;;;19.68;57.08;101045.94;2096391;28;20044;-74
2022/09/23 04:57:33;;;;;;;4.43;1.20;;;;;;;19.68;57.27;101043.25;2088523;28;20069;-74
2022/09/23 04:58:57;;;;;;;7.75;1.98;;;;;;;19.70;57.12;101050.34;2093645;28;20536;-74
2022/09/23 05:00:18;;;;;;;2.17;0.88;;;;;;;19.75;57.34;101047.59;2104936;28;20040;-73
2022/09/23 05:01:42;;;;;;;2.28;1.00;;;;;;;19.82;57.19;101041.22;2098913;28;20480;-74
2022/09/23 05:03:04;;;;;;;5.72;1.00;;;;;;;19.89;57.09;101050.88;2104761;28;20056;-74
2022/09/23 05:04:26;;;;;;;2.97;1.00;;;;;;;19.95;56.97;101039.19;2098601;28;20079;-74
2022/09/23 05:05:47;;;;;;;2.90;1.13;;;;;;;20.00;56.93;101051.59;2096187;28;20037;-73
2022/09/23 05:07:10;;;;;;;3.30;1.10;;;;;;;20.04;56.82;101047.94;2096047;28;20053;-74
2022/09/23 05:08:31;;;;;;;1.80;0.90;;;;;;;20.07;56.51;101039.84;2098916;28;20048;-75
2022/09/23 05:09:55;;;;;;;4.13;1.05;;;;;;;20.12;56.55;101048.69;2098722;28;20068;-74
2022/09/23 05:11:18;;;;;;;3.65;0.98;;;;;;;20.19;56.17;101047.66;2098652;28;20052;-74
2022/09/23 05:12:40;;;;;;;3.75;0.80;;;;;;;20.31;56.02;101054.56;2104469;28;20468;-74
2022/09/23 05:14:03;;;;;;;2.97;0.90;;;;;;;20.37;55.72;101048.22;2098425;28;20458;-74
2022/09/23 05:15:24;;;;;;;3.30;0.93;;;;;;;20.41;55.32;101049.97;2095990;28;20115;-74
2022/09/23 05:16:47;;;;;;;4.60;1.27;;;;;;;20.43;55.42;101054.34;2095835;28;20052;-75
2022/09/23 05:18:08;;;;;;;2.22;0.90;;;;;;;20.50;55.47;101058.69;2095966;28;20072;-74
2022/09/23 05:19:31;;;;;;;3.88;1.33;;;;;;;20.65;55.32;101055.69;2095480;28;20075;-74
2022/09/23 05:20:54;;;;;;;1.52;0.93;;;;;;;20.85;54.90;101051.69;2104353;28;20032;-74
2022/09/23 05:22:17;;;;;;;1.27;0.70;;;;;;;21.05;54.45;101050.34;2098622;28;20578;-74
2022/09/23 05:23:41;;;;;;;3.22;0.75;;;;;;;21.23;53.87;101059.78;2095859;28;20036;-74
2022/09/23 05:25:06;;;;;;;3.80;0.85;;;;;;;21.28;53.33;101059.69;2095669;28;20056;-74
2022/09/23 05:26:31;;;;;;;3.35;0.90;;;;;;;21.26;53.03;101056.16;2096129;28;20436;-75
2022/09/23 05:27:54;;;;;;;1.90;0.82;;;;;;;21.20;53.05;101057.16;2104458;28;20048;-74
2022/09/23 05:29:17;;;;;;;6.72;1.35;;;;;;;21.15;53.24;101058.16;2098487;28;20044;-75
2022/09/23 05:30:39;;;;;;;2.38;0.90;;;;;;;21.11;52.90;101059.16;2087652;28;20148;-75
2022/09/23 05:32:02;;;;;;;1.30;0.82;;;;;;;21.12;53.18;101056.44;2093333;28;20048;-74
2022/09/23 05:33:23;;;;;;;4.75;0.75;;;;;;;21.20;53.18;101051.78;2095833;28;20052;-75
2022/09/23 05:34:45;;;;;;;1.58;0.73;;;;;;;21.31;53.16;101060.50;2095688;28;20169;-74
2022/09/23 05:36:07;;;;;;;5.57;1.63;;;;;;;21.35;52.63;101064.88;2104194;28;20530;-74
2022/09/23 05:37:31;;;;;;;3.78;1.00;;;;;;;21.36;52.62;101057.69;2090208;28;20045;-75
2022/09/23 05:38:55;;;;;;;3.63;0.70;;;;;;;21.37;52.35;101065.72;2085407;28;20503;-75
2022/09/23 05:40:19;;;;;;;2.10;0.65;;;;;;;21.37;52.37;101071.09;2093677;28;20119;-75
2022/09/23 05:41:42;;;;;;;3.13;1.10;;;;;;;21.38;52.24;101074.66;2095927;28;20204;-75
2022/09/23 05:43:03;;;;;;;1.73;0.77;;;;;;;21.41;52.02;101077.28;2095799;28;20045;-74
2022/09/23 05:44:26;;;;;;;4.88;0.73;;;;;;;21.45;51.64;101076.28;2087170;28;20056;-74
2022/09/23 05:45:49;;;;;;;4.13;0.90;;;;;;;21.52;51.42;101083.28;2085012;28;20037;-74
2022/09/23 05:47:11;;;;;;;1.27;0.85;;;;;;;21.60;51.38;101077.69;2085036;28;20052;-74
2022/09/23 05:48:35;;;;;;;2.45;0.80;;;;;;;21.68;51.20;101075.72;2093067;28;20090;-75
2022/09/23 05:49:58;;;;;;;6.10;0.90;;;;;;;21.70;50.89;101072.09;2098209;28;20041;-74
2022/09/23 05:51:23;;;;;;;2.58;0.98;;;;;;;21.74;50.68;101073.75;2095764;28;20584;-74
2022/09/23 05:52:46;;;;;;;3.90;0.90;;;;;;;21.76;50.73;101077.28;2098367;28;20041;-74
2022/09/23 05:54:09;;;;;;;11.13;2.08;;;;;;;21.78;50.71;101083.53;2095700;28;20048;-74
2022/09/23 05:55:35;;;;;;;2.72;0.90;;;;;;;21.93;50.70;101084.03;2095878;28;20055;-74
2022/09/23 05:56:57;;;;;;;3.25;0.73;;;;;;;22.16;50.69;101081.66;2104386;28;20131;-74
2022/09/23 05:58:19;;;;;;;2.28;0.70;;;;;;;22.34;50.06;101089.22;2098261;28;20063;-75
2022/09/23 05:59:46;;;;;;;1.77;0.85;;;;;;;22.36;49.72;101089.19;2087545;28;20037;-74
2022/09/23 06:01:13;;;;;;;1.15;0.68;;;;;;;22.32;49.40;101082.16;2094493;28;20115;-75
2022/09/23 06:02:35;;;;;;;2.30;0.70;;;;;;;22.26;49.31;101089.44;2096145;28;20100;-75
2022/09/23 06:03:58;;;;;;;2.83;0.82;;;;;;;22.27;49.18;101085.81;2095530;28;20558;-75
2022/09/23 06:05:21;;;;;;;2.72;0.80;;;;;;;22.30;48.84;101086.69;2095456;28;20419;-74
2022/09/23 06:06:44;;;;;;;2.75;1.52;;;;;;;22.39;48.60;101086.41;2095619;28;20559;-74
2022/09/23 06:08:07;;;;;;;2.72;0.90;;;;;;;22.50;48.32;101093.28;2103959;28;20039;-75
2022/09/23 06:09:31;;;;;;;3.03;0.68;;;;;;;22.63;48.00;101088.41;2089853;28;20053;-75
2022/09/23 06:10:55;;;;;;;2.15;0.70;;;;;;;22.79;47.83;101089.75;2087332;28;20044;-74
2022/09/23 06:12:17;;;;;;;2.65;0.98;;;;;;;22.93;47.77;101092.03;2093338;28;20384;-74
2022/09/23 06:13:41;;;;;;;8.27;1.75;;;;;;;23.06;47.68;101085.34;2095423;28;20064;-74
2022/09/23 06:15:05;;;;;;;2.50;1.00;;;;;;;23.11;47.79;101085.19;2095586;28;20044;-74
2022/09/23 06:16:28;;;;;;;5.38;1.02;;;;;;;23.18;47.84;101092.16;2078998;28;20444;-75
2022/09/23 06:17:50;;;;;;;4.22;1.52;;;;;;;23.19;47.40;101086.75;2090898;28;20041;-75
2022/09/23 06:19:13;;;;;;;4.72;1.95;;;;;;;23.17;47.19;101085.03;2095190;28;20049;-75
2022/09/23 06:20:36;;;;;;;4.00;0.93;;;;;;;23.23;47.10;101082.16;2095939;28;20048;-75
2022/09/23 06:21:58;;;;;;;2.08;1.25;;;;;;;23.33;46.83;101091.69;2095553;28;20530;-74
2022/09/23 06:23:20;;;;;;;0.90;0.68;;;;;;;23.39;46.60;101092.38;2095568;28;20055;-75
2022/09/23 06:24:42;;;;;;;1.08;0.70;;;;;;;23.65;46.64;101093.38;2087080;28;20048;-74
2022/09/23 06:26:09;;;;;;;1.63;1.00;;;;;;;24.09;45.89;101094.59;2084527;28;20166;-74
2022/09/23 06:27:32;;;;;;;1.88;0.52;;;;;;;24.36;45.43;101088.22;2093792;28;20087;-74
2022/09/23 06:28:53;;;;;;;1.30;0.50;;;;;;;24.45;45.04;101089.72;2087121;28;20045;-75
2022/09/23 06:30:16;;;;;;;1.00;0.50;;;;;;;24.56;44.76;101085.69;2092643;28;20080;-75
2022/09/23 06:31:40;;;;;;;1.42;0.68;;;;;;;24.69;44.83;101079.81;2095561;28;20523;-75
2022/09/23 06:33:03;;;;;;;3.42;0.60;;;;;;;24.73;44.26;101076.97;2087675;28;20055;-75
2022/09/23 06:34:26;;;;;;;3.75;0.82;;;;;;;24.70;44.37;101085.16;2100997;28;20496;-75
2022/09/23 06:35:48;;;;;;;1.95;0.63;;;;;;;24.76;44.23;101089.47;2089482;28;20128;-75
2022/09/23 06:37:12;;;;;;;1.65;0.82;;;;;;;24.88;44.28;101086.28;2101177;28;20085;-74